sensor_id;sensor_type;location;lat;lon;timestamp;P1;P2;P0
65556;PMS3003;52200;53.490;14.376;2023-12-20T00:01:18;2.50;2.50;0.00
65556;PMS3003;52200;53.490;14.376;2023-12-20T00:03:43;5.25;4.00;0.00
65556;PMS3003;52200;53.490;14.376;2023-12-20T00:06:09;2.25;2.00;0.00
65556;PMS3003;52200;53.490;14.376;2023-12-20T00:08:34;1.00;1.00;0.00
65556;PMS3003;52200;53.490;14.376;2023-12-20T00:11:00;2.00;2.00;0.00
65556;PMS3003;52200;53.490;14.376;2023-12-20T00:13:25;2.50;2.00;0.00
65556;PMS3003;52200;53.490;14.376;2023-12-20T00:15:51;2.75;2.75;0.00
65556;PMS3003;52200;53.490;14.376;2023-12-20T00:18:16;3.25;3.25;0.00
65556;PMS3003;52200;53.490;14.376;2023-12-20T00:20:41;4.00;4.00;0.00
65556;PMS3003;52200;53.490;14.376;2023-12-20T00:23:07;5.25;5.00;0.00
65556;PMS3003;52200;53.490;14.376;2023-12-20T00:25:33;3.00;3.00;0.00
65556;PMS3003;52200;53.490;14.376;2023-12-20T00:27:59;3.40;3.00;0.00
65556;PMS3003;52200;53.490;14.376;2023-12-20T00:30:25;4.00;4.00;0.00
65556;PMS3003;52200;53.490;14.376;2023-12-20T00:32:50;5.50;4.00;0.00
65556;PMS3003;52200;53.490;14.376;2023-12-20T00:35:16;3.00;3.00;0.00
65556;PMS3003;52200;53.490;14.376;2023-12-20T00:37:42;6.50;5.75;0.50
65556;PMS3003;52200;53.490;14.376;2023-12-20T00:40:08;5.20;5.00;0.40
65556;PMS3003;52200;53.490;14.376;2023-12-20T00:42:34;6.00;6.00;1.00
65556;PMS3003;52200;53.490;14.376;2023-12-20T00:45:00;6.20;4.80;0.40
65556;PMS3003;52200;53.490;14.376;2023-12-20T00:47:26;4.75;4.75;1.00
65556;PMS3003;52200;53.490;14.376;2023-12-20T00:49:51;7.00;7.00;1.00
65556;PMS3003;52200;53.490;14.376;2023-12-20T00:52:17;6.80;6.20;1.80
65556;PMS3003;52200;53.490;14.376;2023-12-20T00:54:43;7.20;5.40;1.20
65556;PMS3003;52200;53.490;14.376;2023-12-20T00:57:09;7.20;6.80;1.00
65556;PMS3003;52200;53.490;14.376;2023-12-20T00:59:35;7.25;6.25;1.00
65556;PMS3003;52200;53.490;14.376;2023-12-20T01:02:01;8.00;8.00;1.25
65556;PMS3003;52200;53.490;14.376;2023-12-20T01:04:26;7.00;7.00;1.75
65556;PMS3003;52200;53.490;14.376;2023-12-20T01:06:52;10.00;10.00;2.00
65556;PMS3003;52200;53.490;14.376;2023-12-20T01:09:18;7.60;7.00;1.20
65556;PMS3003;52200;53.490;14.376;2023-12-20T01:11:44;7.75;7.75;2.50
65556;PMS3003;52200;53.490;14.376;2023-12-20T01:14:09;8.25;7.75;2.00
65556;PMS3003;52200;53.490;14.376;2023-12-20T01:16:35;6.50;6.00;1.00
65556;PMS3003;52200;53.490;14.376;2023-12-20T01:19:00;6.00;6.00;1.00
65556;PMS3003;52200;53.490;14.376;2023-12-20T01:21:25;7.00;7.00;2.00
65556;PMS3003;52200;53.490;14.376;2023-12-20T01:23:51;8.25;7.00;1.00
65556;PMS3003;52200;53.490;14.376;2023-12-20T01:26:16;5.00;5.00;1.00
65556;PMS3003;52200;53.490;14.376;2023-12-20T01:28:42;6.00;6.00;0.50
65556;PMS3003;52200;53.490;14.376;2023-12-20T01:31:08;5.00;4.60;0.00
65556;PMS3003;52200;53.490;14.376;2023-12-20T01:33:33;8.75;7.50;1.00
65556;PMS3003;52200;53.490;14.376;2023-12-20T01:35:59;6.00;5.00;1.00
65556;PMS3003;52200;53.490;14.376;2023-12-20T01:38:24;6.00;6.00;0.00
65556;PMS3003;52200;53.490;14.376;2023-12-20T01:40:50;7.75;6.00;1.00
65556;PMS3003;52200;53.490;14.376;2023-12-20T01:43:16;4.50;4.50;0.00
65556;PMS3003;52200;53.490;14.376;2023-12-20T01:45:41;6.00;6.00;1.00
65556;PMS3003;52200;53.490;14.376;2023-12-20T01:48:07;5.00;5.00;1.00
65556;PMS3003;52200;53.490;14.376;2023-12-20T01:50:34;5.80;5.00;1.00
65556;PMS3003;52200;53.490;14.376;2023-12-20T01:53:02;5.20;5.00;1.00
65556;PMS3003;52200;53.490;14.376;2023-12-20T01:55:29;3.80;3.80;1.00
65556;PMS3003;52200;53.490;14.376;2023-12-20T01:57:57;3.00;3.00;0.20
65556;PMS3003;52200;53.490;14.376;2023-12-20T02:00:24;6.00;5.20;1.00
65556;PMS3003;52200;53.490;14.376;2023-12-20T02:02:52;3.00;3.00;0.00
65556;PMS3003;52200;53.490;14.376;2023-12-20T02:05:20;6.20;6.20;1.00
65556;PMS3003;52200;53.490;14.376;2023-12-20T02:07:47;8.60;8.60;1.20
65556;PMS3003;52200;53.490;14.376;2023-12-20T02:10:12;18.25;18.00;6.00
65556;PMS3003;52200;53.490;14.376;2023-12-20T02:12:38;11.75;11.75;3.00
65556;PMS3003;52200;53.490;14.376;2023-12-20T02:15:03;28.50;23.50;10.75
65556;PMS3003;52200;53.490;14.376;2023-12-20T02:17:30;19.00;17.60;7.00
65556;PMS3003;52200;53.490;14.376;2023-12-20T02:19:57;29.60;27.00;12.00
65556;PMS3003;52200;53.490;14.376;2023-12-20T02:22:22;32.25;29.00;14.75
65556;PMS3003;52200;53.490;14.376;2023-12-20T02:24:48;54.50;42.25;20.75
65556;PMS3003;52200;53.490;14.376;2023-12-20T02:27:13;62.50;49.25;25.00
65556;PMS3003;52200;53.490;14.376;2023-12-20T02:29:42;58.60;47.20;25.00
65556;PMS3003;52200;53.490;14.376;2023-12-20T02:32:07;46.50;40.50;17.75
65556;PMS3003;52200;53.490;14.376;2023-12-20T02:34:33;44.75;39.00;20.00
65556;PMS3003;52200;53.490;14.376;2023-12-20T02:36:58;12.00;12.00;5.25
65556;PMS3003;52200;53.490;14.376;2023-12-20T02:39:24;7.00;6.00;2.00
65556;PMS3003;52200;53.490;14.376;2023-12-20T02:41:49;11.25;9.00;2.00
65556;PMS3003;52200;53.490;14.376;2023-12-20T02:44:15;4.50;4.50;1.00
65556;PMS3003;52200;53.490;14.376;2023-12-20T02:46:40;8.25;7.00;2.00
65556;PMS3003;52200;53.490;14.376;2023-12-20T02:49:06;6.00;6.00;1.00
65556;PMS3003;52200;53.490;14.376;2023-12-20T02:51:31;5.00;5.00;0.00
65556;PMS3003;52200;53.490;14.376;2023-12-20T02:53:57;6.25;6.00;1.00
65556;PMS3003;52200;53.490;14.376;2023-12-20T02:56:22;6.00;5.00;1.00
65556;PMS3003;52200;53.490;14.376;2023-12-20T02:58:48;9.75;7.75;1.00
65556;PMS3003;52200;53.490;14.376;2023-12-20T03:01:13;11.25;11.00;5.00
65556;PMS3003;52200;53.490;14.376;2023-12-20T03:03:39;15.40;12.80;5.60
65556;PMS3003;52200;53.490;14.376;2023-12-20T03:06:04;8.50;7.00;1.00
65556;PMS3003;52200;53.490;14.376;2023-12-20T03:08:30;7.75;7.00;1.00
65556;PMS3003;52200;53.490;14.376;2023-12-20T03:10:55;5.00;5.00;1.00
65556;PMS3003;52200;53.490;14.376;2023-12-20T03:13:21;4.50;4.50;0.00
65556;PMS3003;52200;53.490;14.376;2023-12-20T03:15:46;4.50;3.00;0.00
65556;PMS3003;52200;53.490;14.376;2023-12-20T03:18:11;6.00;5.50;1.00
65556;PMS3003;52200;53.490;14.376;2023-12-20T03:20:37;9.00;7.00;0.75
65556;PMS3003;52200;53.490;14.376;2023-12-20T03:23:03;5.75;5.25;0.00
65556;PMS3003;52200;53.490;14.376;2023-12-20T03:25:28;3.00;3.00;0.00
65556;PMS3003;52200;53.490;14.376;2023-12-20T03:27:54;6.50;5.50;0.00
65556;PMS3003;52200;53.490;14.376;2023-12-20T03:30:19;5.75;5.00;0.00
65556;PMS3003;52200;53.490;14.376;2023-12-20T03:32:45;5.25;5.00;1.00
65556;PMS3003;52200;53.490;14.376;2023-12-20T03:35:11;5.50;4.50;0.00
65556;PMS3003;52200;53.490;14.376;2023-12-20T03:37:36;5.25;5.00;0.00
65556;PMS3003;52200;53.490;14.376;2023-12-20T03:40:02;5.00;5.00;0.00
65556;PMS3003;52200;53.490;14.376;2023-12-20T03:42:28;7.40;3.80;0.00
65556;PMS3003;52200;53.490;14.376;2023-12-20T03:44:53;6.00;6.00;0.75
65556;PMS3003;52200;53.490;14.376;2023-12-20T03:47:18;5.00;3.50;0.00
65556;PMS3003;52200;53.490;14.376;2023-12-20T03:49:44;4.25;4.25;0.25
65556;PMS3003;52200;53.490;14.376;2023-12-20T03:52:09;5.00;3.75;0.00
65556;PMS3003;52200;53.490;14.376;2023-12-20T03:54:35;3.00;3.00;1.00
65556;PMS3003;52200;53.490;14.376;2023-12-20T03:57:01;4.50;4.50;0.50
65556;PMS3003;52200;53.490;14.376;2023-12-20T03:59:26;7.00;5.50;0.00
65556;PMS3003;52200;53.490;14.376;2023-12-20T04:01:52;6.00;5.00;0.00
65556;PMS3003;52200;53.490;14.376;2023-12-20T04:04:17;3.75;3.75;0.00
65556;PMS3003;52200;53.490;14.376;2023-12-20T04:06:43;4.25;3.75;0.25
65556;PMS3003;52200;53.490;14.376;2023-12-20T04:09:08;5.75;5.75;0.00
65556;PMS3003;52200;53.490;14.376;2023-12-20T04:11:37;5.60;5.00;0.00
65556;PMS3003;52200;53.490;14.376;2023-12-20T04:14:02;3.00;3.00;0.00
65556;PMS3003;52200;53.490;14.376;2023-12-20T04:16:30;6.00;5.00;0.00
65556;PMS3003;52200;53.490;14.376;2023-12-20T04:18:55;3.25;3.25;0.00
65556;PMS3003;52200;53.490;14.376;2023-12-20T04:21:21;3.00;2.50;0.00
65556;PMS3003;52200;53.490;14.376;2023-12-20T04:23:46;7.75;6.00;0.75
65556;PMS3003;52200;53.490;14.376;2023-12-20T04:26:11;4.25;4.25;0.00
65556;PMS3003;52200;53.490;14.376;2023-12-20T04:28:37;6.25;5.50;0.00
65556;PMS3003;52200;53.490;14.376;2023-12-20T04:31:02;4.50;4.50;0.75
65556;PMS3003;52200;53.490;14.376;2023-12-20T04:33:28;5.50;4.50;1.00
65556;PMS3003;52200;53.490;14.376;2023-12-20T04:35:53;4.00;4.00;0.00
65556;PMS3003;52200;53.490;14.376;2023-12-20T04:38:19;6.00;5.00;1.00
65556;PMS3003;52200;53.490;14.376;2023-12-20T04:40:44;3.00;3.00;0.00
65556;PMS3003;52200;53.490;14.376;2023-12-20T04:43:10;4.25;3.25;0.00
65556;PMS3003;52200;53.490;14.376;2023-12-20T04:45:35;4.75;4.75;0.25
65556;PMS3003;52200;53.490;14.376;2023-12-20T04:48:01;5.20;3.80;0.00
65556;PMS3003;52200;53.490;14.376;2023-12-20T04:50:27;3.80;3.80;0.00
65556;PMS3003;52200;53.490;14.376;2023-12-20T04:52:53;5.00;3.00;0.00
65556;PMS3003;52200;53.490;14.376;2023-12-20T04:55:18;8.00;6.00;0.00
65556;PMS3003;52200;53.490;14.376;2023-12-20T04:57:44;5.25;5.25;0.00
65556;PMS3003;52200;53.490;14.376;2023-12-20T05:00:09;5.25;5.00;0.00
65556;PMS3003;52200;53.490;14.376;2023-12-20T05:02:35;3.80;3.80;0.00
65556;PMS3003;52200;53.490;14.376;2023-12-20T05:05:01;6.00;5.40;0.00
65556;PMS3003;52200;53.490;14.376;2023-12-20T05:07:27;5.50;5.00;0.00
65556;PMS3003;52200;53.490;14.376;2023-12-20T05:09:52;5.00;4.50;0.00
65556;PMS3003;52200;53.490;14.376;2023-12-20T05:12:18;3.80;3.80;0.00
65556;PMS3003;52200;53.490;14.376;2023-12-20T05:14:44;5.00;4.50;0.00
65556;PMS3003;52200;53.490;14.376;2023-12-20T05:17:09;4.25;4.25;0.00
65556;PMS3003;52200;53.490;14.376;2023-12-20T05:19:35;5.00;5.00;0.00
65556;PMS3003;52200;53.490;14.376;2023-12-20T05:22:01;5.50;5.00;0.00
65556;PMS3003;52200;53.490;14.376;2023-12-20T05:24:27;9.00;8.20;1.20
65556;PMS3003;52200;53.490;14.376;2023-12-20T05:26:52;5.75;5.00;0.00
65556;PMS3003;52200;53.490;14.376;2023-12-20T05:29:18;5.00;4.75;0.00
65556;PMS3003;52200;53.490;14.376;2023-12-20T05:31:43;5.00;5.00;0.00
65556;PMS3003;52200;53.490;14.376;2023-12-20T05:34:09;4.75;4.75;0.00
65556;PMS3003;52200;53.490;14.376;2023-12-20T05:36:34;4.25;4.00;0.75
65556;PMS3003;52200;53.490;14.376;2023-12-20T05:39:00;7.20;6.20;1.00
65556;PMS3003;52200;53.490;14.376;2023-12-20T05:41:26;5.75;4.75;0.00
65556;PMS3003;52200;53.490;14.376;2023-12-20T05:43:51;5.25;5.25;0.50
65556;PMS3003;52200;53.490;14.376;2023-12-20T05:46:17;6.25;5.25;0.00
65556;PMS3003;52200;53.490;14.376;2023-12-20T05:48:42;9.75;7.00;1.00
65556;PMS3003;52200;53.490;14.376;2023-12-20T05:51:07;6.25;5.25;1.00
65556;PMS3003;52200;53.490;14.376;2023-12-20T05:53:36;6.40;6.00;1.00
65556;PMS3003;52200;53.490;14.376;2023-12-20T05:56:02;5.75;5.00;0.00
65556;PMS3003;52200;53.490;14.376;2023-12-20T05:58:28;5.80;5.80;0.00
65556;PMS3003;52200;53.490;14.376;2023-12-20T06:00:54;6.75;6.00;0.50
65556;PMS3003;52200;53.490;14.376;2023-12-20T06:03:19;7.25;5.00;0.00
65556;PMS3003;52200;53.490;14.376;2023-12-20T06:05:45;6.00;6.00;1.00
65556;PMS3003;52200;53.490;14.376;2023-12-20T06:08:10;6.00;6.00;0.00
65556;PMS3003;52200;53.490;14.376;2023-12-20T06:10:36;7.75;6.00;0.25
65556;PMS3003;52200;53.490;14.376;2023-12-20T06:13:01;5.75;5.75;0.00
65556;PMS3003;52200;53.490;14.376;2023-12-20T06:15:28;6.60;6.40;1.00
65556;PMS3003;52200;53.490;14.376;2023-12-20T06:17:53;8.25;6.75;1.50
65556;PMS3003;52200;53.490;14.376;2023-12-20T06:20:19;7.00;6.75;1.00
65556;PMS3003;52200;53.490;14.376;2023-12-20T06:22:44;7.00;6.25;0.00
65556;PMS3003;52200;53.490;14.376;2023-12-20T06:25:09;7.25;6.00;1.00
65556;PMS3003;52200;53.490;14.376;2023-12-20T06:27:35;8.25;8.25;2.00
65556;PMS3003;52200;53.490;14.376;2023-12-20T06:30:00;8.75;5.00;0.50
65556;PMS3003;52200;53.490;14.376;2023-12-20T06:32:26;6.50;5.75;1.50
65556;PMS3003;52200;53.490;14.376;2023-12-20T06:34:53;8.60;6.60;0.20
65556;PMS3003;52200;53.490;14.376;2023-12-20T06:37:19;8.00;7.00;1.00
65556;PMS3003;52200;53.490;14.376;2023-12-20T06:39:45;13.00;10.00;2.00
65556;PMS3003;52200;53.490;14.376;2023-12-20T06:42:11;8.20;7.00;1.00
65556;PMS3003;52200;53.490;14.376;2023-12-20T06:44:37;9.40;7.00;1.00
65556;PMS3003;52200;53.490;14.376;2023-12-20T06:47:03;10.20;9.20;1.00
65556;PMS3003;52200;53.490;14.376;2023-12-20T06:49:29;9.75;9.00;1.25
65556;PMS3003;52200;53.490;14.376;2023-12-20T06:51:55;7.00;6.00;1.00
65556;PMS3003;52200;53.490;14.376;2023-12-20T06:54:20;10.50;6.75;1.00
65556;PMS3003;52200;53.490;14.376;2023-12-20T06:56:46;10.00;9.25;1.00
65556;PMS3003;52200;53.490;14.376;2023-12-20T06:59:11;7.00;6.50;1.25
65556;PMS3003;52200;53.490;14.376;2023-12-20T07:01:36;9.50;8.75;1.00
65556;PMS3003;52200;53.490;14.376;2023-12-20T07:04:03;6.80;6.20;0.00
65556;PMS3003;52200;53.490;14.376;2023-12-20T07:06:28;7.20;6.00;0.00
65556;PMS3003;52200;53.490;14.376;2023-12-20T07:08:54;9.75;8.00;1.25
65556;PMS3003;52200;53.490;14.376;2023-12-20T07:11:19;6.25;6.25;1.00
65556;PMS3003;52200;53.490;14.376;2023-12-20T07:13:45;7.50;7.00;1.00
65556;PMS3003;52200;53.490;14.376;2023-12-20T07:16:10;11.25;9.50;2.00
65556;PMS3003;52200;53.490;14.376;2023-12-20T07:18:36;10.00;10.00;1.00
65556;PMS3003;52200;53.490;14.376;2023-12-20T07:21:01;9.50;9.50;1.50
65556;PMS3003;52200;53.490;14.376;2023-12-20T07:23:27;12.25;10.75;2.00
65556;PMS3003;52200;53.490;14.376;2023-12-20T07:25:52;11.75;9.00;1.50
65556;PMS3003;52200;53.490;14.376;2023-12-20T07:28:18;10.00;7.50;1.50
65556;PMS3003;52200;53.490;14.376;2023-12-20T07:30:43;11.00;8.50;1.25
65556;PMS3003;52200;53.490;14.376;2023-12-20T07:33:08;7.00;7.00;1.00
65556;PMS3003;52200;53.490;14.376;2023-12-20T07:35:34;8.20;8.20;1.00
65556;PMS3003;52200;53.490;14.376;2023-12-20T07:38:00;7.00;7.00;2.00
65556;PMS3003;52200;53.490;14.376;2023-12-20T07:40:25;8.50;7.25;2.00
65556;PMS3003;52200;53.490;14.376;2023-12-20T07:42:51;7.00;6.75;1.00
65556;PMS3003;52200;53.490;14.376;2023-12-20T07:45:16;7.25;6.75;1.00
65556;PMS3003;52200;53.490;14.376;2023-12-20T07:47:41;9.50;6.50;0.00
65556;PMS3003;52200;53.490;14.376;2023-12-20T07:50:07;9.00;7.00;1.00
65556;PMS3003;52200;53.490;14.376;2023-12-20T07:52:32;12.50;8.50;1.00
65556;PMS3003;52200;53.490;14.376;2023-12-20T07:54:58;10.75;7.50;1.25
65556;PMS3003;52200;53.490;14.376;2023-12-20T07:57:23;10.00;10.00;2.00
65556;PMS3003;52200;53.490;14.376;2023-12-20T07:59:49;7.00;6.75;1.00
65556;PMS3003;52200;53.490;14.376;2023-12-20T08:02:14;9.25;7.50;1.00
65556;PMS3003;52200;53.490;14.376;2023-12-20T08:04:40;9.00;7.00;1.00
65556;PMS3003;52200;53.490;14.376;2023-12-20T08:07:06;7.20;6.80;1.00
65556;PMS3003;52200;53.490;14.376;2023-12-20T08:09:31;10.60;9.00;1.20
65556;PMS3003;52200;53.490;14.376;2023-12-20T08:11:58;8.00;6.80;1.00
65556;PMS3003;52200;53.490;14.376;2023-12-20T08:14:25;7.40;6.00;1.00
65556;PMS3003;52200;53.490;14.376;2023-12-20T08:16:50;9.25;9.00;1.00
65556;PMS3003;52200;53.490;14.376;2023-12-20T08:19:16;11.25;9.25;2.00
65556;PMS3003;52200;53.490;14.376;2023-12-20T08:21:42;8.20;6.20;1.00
65556;PMS3003;52200;53.490;14.376;2023-12-20T08:24:07;8.75;6.75;2.00
65556;PMS3003;52200;53.490;14.376;2023-12-20T08:26:33;10.75;10.00;1.50
65556;PMS3003;52200;53.490;14.376;2023-12-20T08:28:59;9.40;7.40;1.00
65556;PMS3003;52200;53.490;14.376;2023-12-20T08:31:24;9.00;8.50;1.00
65556;PMS3003;52200;53.490;14.376;2023-12-20T08:33:51;10.80;7.20;0.80
65556;PMS3003;52200;53.490;14.376;2023-12-20T08:36:18;8.60;8.60;1.00
65556;PMS3003;52200;53.490;14.376;2023-12-20T08:38:46;10.00;7.00;1.00
65556;PMS3003;52200;53.490;14.376;2023-12-20T08:41:11;9.50;8.75;1.50
65556;PMS3003;52200;53.490;14.376;2023-12-20T08:43:37;5.00;5.00;0.50
65556;PMS3003;52200;53.490;14.376;2023-12-20T08:46:05;10.00;8.40;1.40
65556;PMS3003;52200;53.490;14.376;2023-12-20T08:48:31;10.00;6.80;1.00
65556;PMS3003;52200;53.490;14.376;2023-12-20T08:50:56;8.50;6.00;1.00
65556;PMS3003;52200;53.490;14.376;2023-12-20T08:53:22;9.00;6.00;1.00
65556;PMS3003;52200;53.490;14.376;2023-12-20T08:55:47;6.00;5.00;0.50
65556;PMS3003;52200;53.490;14.376;2023-12-20T08:58:13;11.25;6.50;1.00
65556;PMS3003;52200;53.490;14.376;2023-12-20T09:00:39;5.00;5.00;0.40
65556;PMS3003;52200;53.490;14.376;2023-12-20T09:03:05;8.20;6.60;1.00
65556;PMS3003;52200;53.490;14.376;2023-12-20T09:05:30;7.75;6.75;1.00
65556;PMS3003;52200;53.490;14.376;2023-12-20T09:07:56;9.00;7.50;1.25
65556;PMS3003;52200;53.490;14.376;2023-12-20T09:10:22;9.00;8.50;1.00
65556;PMS3003;52200;53.490;14.376;2023-12-20T09:12:51;6.40;6.40;0.00
65556;PMS3003;52200;53.490;14.376;2023-12-20T09:15:19;6.00;5.60;0.40
65556;PMS3003;52200;53.490;14.376;2023-12-20T09:17:44;7.00;6.50;0.00
65556;PMS3003;52200;53.490;14.376;2023-12-20T09:20:10;6.75;6.75;1.00
65556;PMS3003;52200;53.490;14.376;2023-12-20T09:22:35;9.00;7.00;1.00
65556;PMS3003;52200;53.490;14.376;2023-12-20T09:25:03;4.60;4.60;0.00
65556;PMS3003;52200;53.490;14.376;2023-12-20T09:27:29;7.40;7.40;1.20
65556;PMS3003;52200;53.490;14.376;2023-12-20T09:29:54;10.25;7.00;1.00
65556;PMS3003;52200;53.490;14.376;2023-12-20T09:32:20;7.00;6.75;0.25
65556;PMS3003;52200;53.490;14.376;2023-12-20T09:34:45;6.25;6.25;0.25
65556;PMS3003;52200;53.490;14.376;2023-12-20T09:37:12;6.00;6.00;0.60
65556;PMS3003;52200;53.490;14.376;2023-12-20T09:39:38;5.25;5.00;0.50
65556;PMS3003;52200;53.490;14.376;2023-12-20T09:42:04;9.00;6.25;1.00
65556;PMS3003;52200;53.490;14.376;2023-12-20T09:44:30;7.40;6.40;1.00
65556;PMS3003;52200;53.490;14.376;2023-12-20T09:46:57;8.00;6.40;0.00
65556;PMS3003;52200;53.490;14.376;2023-12-20T09:49:22;7.20;5.40;0.00
65556;PMS3003;52200;53.490;14.376;2023-12-20T09:51:50;10.75;7.00;1.00
65556;PMS3003;52200;53.490;14.376;2023-12-20T09:54:17;7.80;6.40;1.00
65556;PMS3003;52200;53.490;14.376;2023-12-20T09:56:43;7.20;6.20;1.00
65556;PMS3003;52200;53.490;14.376;2023-12-20T09:59:09;7.00;5.80;0.80
65556;PMS3003;52200;53.490;14.376;2023-12-20T10:01:35;6.20;5.80;0.60
65556;PMS3003;52200;53.490;14.376;2023-12-20T10:04:01;14.40;10.00;0.00
65556;PMS3003;52200;53.490;14.376;2023-12-20T10:06:52;6.80;6.00;1.20
65556;PMS3003;52200;53.490;14.376;2023-12-20T10:09:17;7.20;5.60;1.00
65556;PMS3003;52200;53.490;14.376;2023-12-20T10:11:43;7.25;6.50;0.75
65556;PMS3003;52200;53.490;14.376;2023-12-20T10:14:10;10.00;6.00;1.00
65556;PMS3003;52200;53.490;14.376;2023-12-20T10:16:36;8.00;6.60;0.80
65556;PMS3003;52200;53.490;14.376;2023-12-20T10:19:01;8.00;7.25;1.00
65556;PMS3003;52200;53.490;14.376;2023-12-20T10:21:27;6.00;6.00;0.00
65556;PMS3003;52200;53.490;14.376;2023-12-20T10:23:56;6.40;5.40;0.20
65556;PMS3003;52200;53.490;14.376;2023-12-20T10:26:23;7.20;6.60;1.00
65556;PMS3003;52200;53.490;14.376;2023-12-20T10:28:53;7.00;7.00;0.80
65556;PMS3003;52200;53.490;14.376;2023-12-20T10:34:00;7.00;5.80;1.00
65556;PMS3003;52200;53.490;14.376;2023-12-20T10:36:32;8.60;7.20;1.00
65556;PMS3003;52200;53.490;14.376;2023-12-20T10:38:58;6.80;6.40;1.20
65556;PMS3003;52200;53.490;14.376;2023-12-20T10:41:31;8.60;6.20;1.00
65556;PMS3003;52200;53.490;14.376;2023-12-20T10:43:59;9.00;7.60;1.00
65556;PMS3003;52200;53.490;14.376;2023-12-20T10:46:27;10.60;8.00;1.00
65556;PMS3003;52200;53.490;14.376;2023-12-20T10:48:56;7.00;5.60;1.00
65556;PMS3003;52200;53.490;14.376;2023-12-20T10:51:22;10.50;8.00;1.00
65556;PMS3003;52200;53.490;14.376;2023-12-20T10:53:50;11.20;9.40;1.00
65556;PMS3003;52200;53.490;14.376;2023-12-20T10:56:19;8.80;7.80;1.00
65556;PMS3003;52200;53.490;14.376;2023-12-20T10:58:46;10.60;8.60;1.00
65556;PMS3003;52200;53.490;14.376;2023-12-20T11:01:16;7.60;7.00;0.80
65556;PMS3003;52200;53.490;14.376;2023-12-20T11:03:52;7.80;6.00;1.00
65556;PMS3003;52200;53.490;14.376;2023-12-20T11:06:30;7.20;6.40;1.00
65556;PMS3003;52200;53.490;14.376;2023-12-20T11:14:38;10.80;9.20;1.20
65556;PMS3003;52200;53.490;14.376;2023-12-20T11:17:07;9.80;7.00;1.00
65556;PMS3003;52200;53.490;14.376;2023-12-20T11:20:24;8.00;7.00;2.00
65556;PMS3003;52200;53.490;14.376;2023-12-20T11:22:29;7.40;6.40;1.00
65556;PMS3003;52200;53.490;14.376;2023-12-20T11:25:02;9.00;8.00;1.20
65556;PMS3003;52200;53.490;14.376;2023-12-20T11:27:30;11.00;7.00;1.20
65556;PMS3003;52200;53.490;14.376;2023-12-20T11:29:56;8.40;7.40;1.00
65556;PMS3003;52200;53.490;14.376;2023-12-20T11:35:00;8.40;7.80;1.60
65556;PMS3003;52200;53.490;14.376;2023-12-20T11:37:48;6.20;6.20;1.20
65556;PMS3003;52200;53.490;14.376;2023-12-20T11:40:17;8.00;6.75;1.00
65556;PMS3003;52200;53.490;14.376;2023-12-20T11:42:50;7.20;7.00;1.00
65556;PMS3003;52200;53.490;14.376;2023-12-20T11:45:17;6.20;5.80;1.00
65556;PMS3003;52200;53.490;14.376;2023-12-20T11:47:47;7.20;6.80;0.80
65556;PMS3003;52200;53.490;14.376;2023-12-20T11:50:19;7.00;7.00;0.60
65556;PMS3003;52200;53.490;14.376;2023-12-20T11:52:45;7.80;6.80;1.20
65556;PMS3003;52200;53.490;14.376;2023-12-20T11:55:11;9.80;8.00;2.00
65556;PMS3003;52200;53.490;14.376;2023-12-20T11:57:37;9.60;7.20;1.00
65556;PMS3003;52200;53.490;14.376;2023-12-20T12:00:03;7.40;6.40;1.00
65556;PMS3003;52200;53.490;14.376;2023-12-20T12:02:31;10.40;7.80;1.00
65556;PMS3003;52200;53.490;14.376;2023-12-20T12:04:57;7.00;6.80;1.00
65556;PMS3003;52200;53.490;14.376;2023-12-20T12:07:24;7.00;7.00;1.20
65556;PMS3003;52200;53.490;14.376;2023-12-20T12:09:49;8.00;7.00;1.80
65556;PMS3003;52200;53.490;14.376;2023-12-20T12:12:15;6.00;5.00;0.25
65556;PMS3003;52200;53.490;14.376;2023-12-20T12:14:41;8.40;6.40;2.00
65556;PMS3003;52200;53.490;14.376;2023-12-20T12:17:13;8.25;6.75;1.00
65556;PMS3003;52200;53.490;14.376;2023-12-20T12:19:39;6.60;6.20;1.00
65556;PMS3003;52200;53.490;14.376;2023-12-20T12:22:09;8.80;6.40;1.00
65556;PMS3003;52200;53.490;14.376;2023-12-20T12:24:40;7.40;6.60;1.80
65556;PMS3003;52200;53.490;14.376;2023-12-20T12:27:06;7.40;7.00;1.00
65556;PMS3003;52200;53.490;14.376;2023-12-20T12:29:34;10.60;8.20;1.80
65556;PMS3003;52200;53.490;14.376;2023-12-20T12:32:00;7.20;6.00;1.00
65556;PMS3003;52200;53.490;14.376;2023-12-20T12:34:29;8.60;8.00;1.60
65556;PMS3003;52200;53.490;14.376;2023-12-20T12:36:56;11.00;6.60;1.00
65556;PMS3003;52200;53.490;14.376;2023-12-20T12:39:23;11.80;8.60;2.00
65556;PMS3003;52200;53.490;14.376;2023-12-20T12:41:52;10.00;7.60;1.00
65556;PMS3003;52200;53.490;14.376;2023-12-20T12:44:18;5.60;5.60;1.00
65556;PMS3003;52200;53.490;14.376;2023-12-20T12:46:45;5.60;5.60;1.40
65556;PMS3003;52200;53.490;14.376;2023-12-20T12:49:11;8.00;7.00;1.00
65556;PMS3003;52200;53.490;14.376;2023-12-20T12:51:36;10.50;7.25;1.00
65556;PMS3003;52200;53.490;14.376;2023-12-20T12:54:02;7.00;6.50;1.00
65556;PMS3003;52200;53.490;14.376;2023-12-20T12:56:28;6.20;6.00;1.00
65556;PMS3003;52200;53.490;14.376;2023-12-20T12:58:54;7.00;5.25;0.50
65556;PMS3003;52200;53.490;14.376;2023-12-20T13:01:19;8.50;6.50;1.00
65556;PMS3003;52200;53.490;14.376;2023-12-20T13:03:45;7.00;6.00;1.00
65556;PMS3003;52200;53.490;14.376;2023-12-20T13:06:10;6.50;6.50;1.00
65556;PMS3003;52200;53.490;14.376;2023-12-20T13:08:36;6.00;5.00;1.00
65556;PMS3003;52200;53.490;14.376;2023-12-20T13:11:01;6.00;5.00;0.50
65556;PMS3003;52200;53.490;14.376;2023-12-20T13:13:29;4.60;3.00;0.00
65556;PMS3003;52200;53.490;14.376;2023-12-20T13:15:55;4.20;4.20;0.00
65556;PMS3003;52200;53.490;14.376;2023-12-20T13:18:21;6.50;5.00;0.00
65556;PMS3003;52200;53.490;14.376;2023-12-20T13:20:47;4.20;3.00;0.00
65556;PMS3003;52200;53.490;14.376;2023-12-20T13:23:13;5.40;5.00;0.00
65556;PMS3003;52200;53.490;14.376;2023-12-20T13:25:39;7.50;6.50;0.00
65556;PMS3003;52200;53.490;14.376;2023-12-20T13:28:05;6.20;5.00;0.00
65556;PMS3003;52200;53.490;14.376;2023-12-20T13:30:31;5.00;3.00;0.00
65556;PMS3003;52200;53.490;14.376;2023-12-20T13:32:56;6.00;5.00;1.00
65556;PMS3003;52200;53.490;14.376;2023-12-20T13:35:22;6.25;5.75;0.00
65556;PMS3003;52200;53.490;14.376;2023-12-20T13:37:47;5.25;5.00;0.00
65556;PMS3003;52200;53.490;14.376;2023-12-20T13:40:13;3.00;3.00;0.00
65556;PMS3003;52200;53.490;14.376;2023-12-20T13:42:39;5.00;2.75;0.00
65556;PMS3003;52200;53.490;14.376;2023-12-20T13:45:05;5.00;3.40;0.00
65556;PMS3003;52200;53.490;14.376;2023-12-20T13:47:31;3.20;2.80;0.00
65556;PMS3003;52200;53.490;14.376;2023-12-20T13:49:57;3.00;3.00;0.00
65556;PMS3003;52200;53.490;14.376;2023-12-20T13:52:23;2.00;2.00;0.00
65556;PMS3003;52200;53.490;14.376;2023-12-20T13:54:48;2.50;2.50;0.00
65556;PMS3003;52200;53.490;14.376;2023-12-20T13:57:14;5.25;5.00;0.00
65556;PMS3003;52200;53.490;14.376;2023-12-20T13:59:39;3.25;2.75;0.00
65556;PMS3003;52200;53.490;14.376;2023-12-20T14:02:05;2.75;2.25;0.00
65556;PMS3003;52200;53.490;14.376;2023-12-20T14:04:30;2.00;2.00;0.00
65556;PMS3003;52200;53.490;14.376;2023-12-20T14:06:56;4.50;2.75;0.00
65556;PMS3003;52200;53.490;14.376;2023-12-20T14:09:22;3.40;3.40;0.00
65556;PMS3003;52200;53.490;14.376;2023-12-20T14:11:47;4.00;3.00;0.00